sensor_id;sensor_type;location;lat;lon;timestamp;P1;durP1;ratioP1;P2;durP2;ratioP2
77148;SDS011;66122;47.130;16.844;2023-05-10T00:06:16;7.63;;;3.63;;
77148;SDS011;66122;47.130;16.844;2023-05-10T00:16:19;7.30;;;3.70;;
77148;SDS011;66122;47.130;16.844;2023-05-10T00:26:21;7.07;;;3.43;;
77148;SDS011;66122;47.130;16.844;2023-05-10T00:36:27;7.88;;;3.85;;
77148;SDS011;66122;47.130;16.844;2023-05-10T00:46:29;8.30;;;3.70;;
77148;SDS011;66122;47.130;16.844;2023-05-10T00:56:33;7.67;;;3.90;;
77148;SDS011;66122;47.130;16.844;2023-05-10T01:06:36;8.20;;;3.47;;
77148;SDS011;66122;47.130;16.844;2023-05-10T01:16:38;7.27;;;3.57;;
77148;SDS011;66122;47.130;16.844;2023-05-10T01:37:15;8.77;;;3.87;;
77148;SDS011;66122;47.130;16.844;2023-05-10T01:57:44;7.23;;;3.80;;
77148;SDS011;66122;47.130;16.844;2023-05-10T02:07:51;7.63;;;3.47;;
77148;SDS011;66122;47.130;16.844;2023-05-10T02:17:55;8.20;;;3.60;;
77148;SDS011;66122;47.130;16.844;2023-05-10T02:28:00;6.50;;;3.50;;
77148;SDS011;66122;47.130;16.844;2023-05-10T02:38:05;9.97;;;3.50;;
77148;SDS011;66122;47.130;16.844;2023-05-10T02:48:09;5.28;;;2.75;;
77148;SDS011;66122;47.130;16.844;2023-05-10T02:58:12;6.63;;;3.80;;
77148;SDS011;66122;47.130;16.844;2023-05-10T03:08:14;7.23;;;3.00;;
77148;SDS011;66122;47.130;16.844;2023-05-10T03:18:27;5.30;;;2.93;;
77148;SDS011;66122;47.130;16.844;2023-05-10T03:28:36;6.50;;;3.30;;
77148;SDS011;66122;47.130;16.844;2023-05-10T03:38:41;8.37;;;3.50;;
77148;SDS011;66122;47.130;16.844;2023-05-10T03:48:44;5.97;;;2.83;;
77148;SDS011;66122;47.130;16.844;2023-05-10T03:58:46;6.75;;;3.30;;
77148;SDS011;66122;47.130;16.844;2023-05-10T04:08:49;9.80;;;3.77;;
77148;SDS011;66122;47.130;16.844;2023-05-10T04:18:52;8.27;;;4.03;;
77148;SDS011;66122;47.130;16.844;2023-05-10T04:28:55;8.38;;;4.10;;
77148;SDS011;66122;47.130;16.844;2023-05-10T04:38:57;10.47;;;4.77;;
77148;SDS011;66122;47.130;16.844;2023-05-10T04:49:00;7.87;;;4.47;;
77148;SDS011;66122;47.130;16.844;2023-05-10T04:59:03;8.53;;;4.63;;
77148;SDS011;66122;47.130;16.844;2023-05-10T05:09:05;10.35;;;4.65;;
77148;SDS011;66122;47.130;16.844;2023-05-10T05:19:08;11.97;;;6.30;;
77148;SDS011;66122;47.130;16.844;2023-05-10T05:29:11;12.23;;;6.33;;
77148;SDS011;66122;47.130;16.844;2023-05-10T05:39:15;7.78;;;4.55;;
77148;SDS011;66122;47.130;16.844;2023-05-10T05:49:18;10.53;;;4.20;;
77148;SDS011;66122;47.130;16.844;2023-05-10T05:59:20;7.23;;;4.20;;
77148;SDS011;66122;47.130;16.844;2023-05-10T06:09:23;9.35;;;4.63;;
77148;SDS011;66122;47.130;16.844;2023-05-10T06:19:26;8.27;;;4.53;;
77148;SDS011;66122;47.130;16.844;2023-05-10T06:29:29;7.53;;;4.00;;
77148;SDS011;66122;47.130;16.844;2023-05-10T06:39:31;9.03;;;5.37;;
77148;SDS011;66122;47.130;16.844;2023-05-10T06:49:34;8.55;;;4.68;;
77148;SDS011;66122;47.130;16.844;2023-05-10T06:59:37;6.07;;;3.87;;
77148;SDS011;66122;47.130;16.844;2023-05-10T07:09:40;5.90;;;3.50;;
77148;SDS011;66122;47.130;16.844;2023-05-10T07:19:42;6.22;;;4.13;;
77148;SDS011;66122;47.130;16.844;2023-05-10T07:29:45;7.37;;;4.23;;
77148;SDS011;66122;47.130;16.844;2023-05-10T07:39:48;5.77;;;3.67;;
77148;SDS011;66122;47.130;16.844;2023-05-10T07:49:50;4.70;;;2.92;;
77148;SDS011;66122;47.130;16.844;2023-05-10T07:59:53;3.67;;;2.40;;
77148;SDS011;66122;47.130;16.844;2023-05-10T08:09:55;3.73;;;2.30;;
77148;SDS011;66122;47.130;16.844;2023-05-10T08:19:58;4.23;;;2.33;;
77148;SDS011;66122;47.130;16.844;2023-05-10T08:30:00;3.55;;;1.83;;
77148;SDS011;66122;47.130;16.844;2023-05-10T08:40:03;3.30;;;1.87;;
77148;SDS011;66122;47.130;16.844;2023-05-10T08:50:06;3.23;;;1.80;;
77148;SDS011;66122;47.130;16.844;2023-05-10T09:00:09;3.10;;;1.90;;
77148;SDS011;66122;47.130;16.844;2023-05-10T09:10:13;4.37;;;2.00;;
77148;SDS011;66122;47.130;16.844;2023-05-10T09:20:17;3.10;;;1.77;;
77148;SDS011;66122;47.130;16.844;2023-05-10T09:30:23;2.95;;;1.50;;
77148;SDS011;66122;47.130;16.844;2023-05-10T09:40:28;4.57;;;1.60;;
77148;SDS011;66122;47.130;16.844;2023-05-10T09:50:32;2.83;;;1.40;;
77148;SDS011;66122;47.130;16.844;2023-05-10T10:00:37;2.80;;;1.60;;
77148;SDS011;66122;47.130;16.844;2023-05-10T10:10:41;2.50;;;1.55;;
77148;SDS011;66122;47.130;16.844;2023-05-10T10:20:47;3.37;;;1.37;;
77148;SDS011;66122;47.130;16.844;2023-05-10T10:30:50;2.53;;;1.50;;
77148;SDS011;66122;47.130;16.844;2023-05-10T10:41:04;2.85;;;1.80;;
77148;SDS011;66122;47.130;16.844;2023-05-10T10:51:13;3.73;;;2.10;;
77148;SDS011;66122;47.130;16.844;2023-05-10T11:01:17;3.13;;;1.87;;
77148;SDS011;66122;47.130;16.844;2023-05-10T11:11:20;2.60;;;2.20;;
77148;SDS011;66122;47.130;16.844;2023-05-10T11:21:24;3.37;;;2.30;;
77148;SDS011;66122;47.130;16.844;2023-05-10T11:31:27;3.70;;;2.60;;
77148;SDS011;66122;47.130;16.844;2023-05-10T11:41:30;3.33;;;1.90;;
77148;SDS011;66122;47.130;16.844;2023-05-10T11:51:34;3.43;;;2.43;;
77148;SDS011;66122;47.130;16.844;2023-05-10T12:01:41;5.13;;;2.67;;
77148;SDS011;66122;47.130;16.844;2023-05-10T12:11:44;4.13;;;3.25;;
77148;SDS011;66122;47.130;16.844;2023-05-10T12:21:47;4.13;;;3.13;;
77148;SDS011;66122;47.130;16.844;2023-05-10T12:41:52;3.08;;;2.17;;
77148;SDS011;66122;47.130;16.844;2023-05-10T12:51:55;3.93;;;2.10;;
77148;SDS011;66122;47.130;16.844;2023-05-10T13:01:57;3.40;;;1.77;;
77148;SDS011;66122;47.130;16.844;2023-05-10T13:12:00;3.40;;;1.58;;
77148;SDS011;66122;47.130;16.844;2023-05-10T13:22:03;3.10;;;2.27;;
77148;SDS011;66122;47.130;16.844;2023-05-10T13:32:05;3.23;;;1.70;;
77148;SDS011;66122;47.130;16.844;2023-05-10T13:42:08;5.13;;;2.00;;
77148;SDS011;66122;47.130;16.844;2023-05-10T13:52:10;3.90;;;1.90;;
77148;SDS011;66122;47.130;16.844;2023-05-10T14:02:14;2.97;;;1.40;;
77148;SDS011;66122;47.130;16.844;2023-05-10T14:12:16;6.73;;;2.00;;
77148;SDS011;66122;47.130;16.844;2023-05-10T14:22:19;4.63;;;1.97;;
77148;SDS011;66122;47.130;16.844;2023-05-10T14:32:21;3.83;;;1.75;;
77148;SDS011;66122;47.130;16.844;2023-05-10T14:42:24;3.73;;;1.90;;
77148;SDS011;66122;47.130;16.844;2023-05-10T14:52:26;3.20;;;1.63;;
77148;SDS011;66122;47.130;16.844;2023-05-10T15:02:29;3.53;;;1.92;;
77148;SDS011;66122;47.130;16.844;2023-05-10T15:12:33;2.67;;;1.43;;
77148;SDS011;66122;47.130;16.844;2023-05-10T15:22:36;5.00;;;2.17;;
77148;SDS011;66122;47.130;16.844;2023-05-10T15:32:38;3.15;;;1.50;;
77148;SDS011;66122;47.130;16.844;2023-05-10T15:42:42;3.00;;;1.40;;
77148;SDS011;66122;47.130;16.844;2023-05-10T15:52:44;2.93;;;1.90;;
77148;SDS011;66122;47.130;16.844;2023-05-10T16:02:47;3.88;;;1.50;;
77148;SDS011;66122;47.130;16.844;2023-05-10T16:12:50;2.27;;;1.60;;
77148;SDS011;66122;47.130;16.844;2023-05-10T16:22:53;3.03;;;1.67;;
77148;SDS011;66122;47.130;16.844;2023-05-10T16:32:55;6.63;;;1.87;;
77148;SDS011;66122;47.130;16.844;2023-05-10T16:42:59;5.25;;;1.85;;
77148;SDS011;66122;47.130;16.844;2023-05-10T16:53:01;3.87;;;1.93;;
77148;SDS011;66122;47.130;16.844;2023-05-10T17:03:04;3.33;;;2.07;;
77148;SDS011;66122;47.130;16.844;2023-05-10T17:13:07;3.00;;;1.83;;
77148;SDS011;66122;47.130;16.844;2023-05-10T17:23:11;3.97;;;2.13;;
77148;SDS011;66122;47.130;16.844;2023-05-10T17:33:14;5.30;;;2.70;;
77148;SDS011;66122;47.130;16.844;2023-05-10T17:43:16;5.45;;;2.72;;
77148;SDS011;66122;47.130;16.844;2023-05-10T17:53:19;5.50;;;2.77;;
77148;SDS011;66122;47.130;16.844;2023-05-10T18:03:22;3.97;;;2.20;;
77148;SDS011;66122;47.130;16.844;2023-05-10T18:13:25;4.93;;;2.80;;
77148;SDS011;66122;47.130;16.844;2023-05-10T18:23:27;6.60;;;2.07;;
77148;SDS011;66122;47.130;16.844;2023-05-10T18:33:30;3.53;;;1.73;;
77148;SDS011;66122;47.130;16.844;2023-05-10T18:43:32;6.10;;;1.90;;
77148;SDS011;66122;47.130;16.844;2023-05-10T18:53:35;3.00;;;1.65;;
77148;SDS011;66122;47.130;16.844;2023-05-10T19:03:38;3.77;;;1.67;;
77148;SDS011;66122;47.130;16.844;2023-05-10T19:13:41;3.83;;;2.17;;
77148;SDS011;66122;47.130;16.844;2023-05-10T19:23:44;5.15;;;3.28;;
77148;SDS011;66122;47.130;16.844;2023-05-10T19:33:47;4.47;;;2.37;;
77148;SDS011;66122;47.130;16.844;2023-05-10T19:43:50;3.97;;;2.17;;
77148;SDS011;66122;47.130;16.844;2023-05-10T19:53:54;3.22;;;2.10;;
77148;SDS011;66122;47.130;16.844;2023-05-10T20:03:56;5.60;;;2.37;;
77148;SDS011;66122;47.130;16.844;2023-05-10T20:13:59;3.20;;;2.30;;
77148;SDS011;66122;47.130;16.844;2023-05-10T20:24:01;4.93;;;2.10;;
77148;SDS011;66122;47.130;16.844;2023-05-10T20:34:04;6.30;;;2.35;;
77148;SDS011;66122;47.130;16.844;2023-05-10T20:44:07;3.43;;;2.03;;
77148;SDS011;66122;47.130;16.844;2023-05-10T20:54:09;8.13;;;2.17;;
77148;SDS011;66122;47.130;16.844;2023-05-10T21:04:11;3.88;;;2.42;;
77148;SDS011;66122;47.130;16.844;2023-05-10T21:14:14;7.10;;;2.10;;
77148;SDS011;66122;47.130;16.844;2023-05-10T21:24:17;4.37;;;2.60;;
77148;SDS011;66122;47.130;16.844;2023-05-10T21:34:20;4.05;;;2.33;;
77148;SDS011;66122;47.130;16.844;2023-05-10T21:44:22;3.40;;;2.10;;
77148;SDS011;66122;47.130;16.844;2023-05-10T21:54:24;6.43;;;1.90;;
77148;SDS011;66122;47.130;16.844;2023-05-10T22:04:27;4.00;;;1.90;;
77148;SDS011;66122;47.130;16.844;2023-05-10T22:14:29;3.88;;;1.90;;
77148;SDS011;66122;47.130;16.844;2023-05-10T22:24:32;4.20;;;2.50;;
77148;SDS011;66122;47.130;16.844;2023-05-10T22:34:34;3.50;;;2.03;;
77148;SDS011;66122;47.130;16.844;2023-05-10T22:44:37;4.25;;;2.20;;
77148;SDS011;66122;47.130;16.844;2023-05-10T22:54:40;3.30;;;1.90;;
77148;SDS011;66122;47.130;16.844;2023-05-10T23:04:42;3.67;;;2.10;;
77148;SDS011;66122;47.130;16.844;2023-05-10T23:14:45;3.83;;;2.22;;
77148;SDS011;66122;47.130;16.844;2023-05-10T23:24:48;4.53;;;2.40;;
77148;SDS011;66122;47.130;16.844;2023-05-10T23:34:51;4.17;;;2.37;;
77148;SDS011;66122;47.130;16.844;2023-05-10T23:44:54;6.10;;;2.30;;
